Time;durP1;ratioP1;P1;durP2;ratioP2;P2;SDS_P1;SDS_P2;PMS_P1;PMS_P2;Temp;Humidity;BMP_temperature;BMP_pressure;BME280_temperature;BME280_humidity;BME280_pressure;Samples;Min_cycle;Max_cycle;Signal;HPM_P1;HPM_P2
2023/06/02 00:01:14;;;;;;;7.13;1.15;;;11.30;99.90;;;;;;5009941;28;20466;-71
2023/06/02 00:03:42;;;;;;;9.77;1.70;;;11.30;99.90;;;;;;4992708;28;20485;-72
2023/06/02 00:06:09;;;;;;;6.38;1.52;;;11.30;99.90;;;;;;4997687;28;20042;-71
2023/06/02 00:08:38;;;;;;;9.70;1.77;;;11.30;99.90;;;;;;5011334;28;20491;-72
2023/06/02 00:11:05;;;;;;;12.50;2.00;;;11.30;99.90;;;;;;4997204;28;20123;-72
2023/06/02 00:13:31;;;;;;;9.07;1.70;;;11.30;99.90;;;;;;4990585;28;20326;-71
2023/06/02 00:15:56;;;;;;;5.40;1.50;;;11.30;99.90;;;;;;5000103;28;20084;-72
2023/06/02 00:18:22;;;;;;;7.07;1.63;;;11.30;99.90;;;;;;5009915;28;20125;-72
2023/06/02 00:20:49;;;;;;;13.48;2.22;;;11.30;99.90;;;;;;4987371;28;20077;-72
2023/06/02 00:23:15;;;;;;;6.57;1.38;;;11.30;99.90;;;;;;5005691;28;20319;-71
2023/06/02 00:25:41;;;;;;;11.38;1.67;;;11.30;99.90;;;;;;4997922;28;20564;-71
2023/06/02 00:28:06;;;;;;;11.10;2.53;;;11.30;99.90;;;;;;4987486;28;20328;-72
2023/06/02 00:30:36;;;;;;;4.18;1.60;;;11.30;99.90;;;;;;4991043;28;20085;-72
2023/06/02 00:33:02;;;;;;;5.55;1.13;;;11.30;99.90;;;;;;5004578;28;21905;-72
2023/06/02 00:35:28;;;;;;;6.30;2.10;;;11.30;99.90;;;;;;5011377;28;20450;-71
2023/06/02 00:37:54;;;;;;;7.63;1.98;;;11.30;99.90;;;;;;4999243;28;20309;-71
2023/06/02 00:40:21;;;;;;;8.18;1.90;;;11.30;99.90;;;;;;4995059;28;20121;-71
2023/06/02 00:42:47;;;;;;;5.45;1.85;;;11.30;99.90;;;;;;5001313;28;20079;-71
2023/06/02 00:45:13;;;;;;;9.03;1.40;;;11.30;99.90;;;;;;5008964;28;20073;-72
2023/06/02 00:47:41;;;;;;;10.20;1.45;;;11.30;99.90;;;;;;4991651;28;20125;-72
2023/06/02 00:50:08;;;;;;;9.85;1.42;;;11.30;99.90;;;;;;4985065;28;20562;-72
2023/06/02 00:52:34;;;;;;;7.40;1.95;;;11.30;99.90;;;;;;4998364;28;20050;-71
2023/06/02 00:55:01;;;;;;;6.32;1.73;;;11.30;99.90;;;;;;4994035;28;20041;-72
2023/06/02 00:57:28;;;;;;;12.20;1.50;;;11.30;99.90;;;;;;5014216;28;20519;-72
2023/06/02 01:00:40;;;;;;;9.55;1.63;;;11.30;99.90;;;;;;5017355;23;20424;-88
2023/06/02 01:03:35;;;;;;;6.35;1.48;;;11.30;99.90;;;;;;4996981;28;20129;-87
2023/06/02 01:06:22;;;;;;;10.70;1.98;;;11.20;99.90;;;;;;4983319;28;20169;-87
2023/06/02 01:09:22;;;;;;;9.20;1.50;;;11.30;99.90;;;;;;5013745;28;20240;-88
2023/06/02 01:11:55;;;;;;;10.05;1.35;;;11.30;99.90;;;;;;5004210;28;20452;-90
2023/06/02 01:14:21;;;;;;;8.13;1.88;;;11.30;99.90;;;;;;5007033;28;20041;-86
2023/06/02 01:16:49;;;;;;;5.43;1.43;;;11.30;99.90;;;;;;4987367;28;20050;-87
2023/06/02 01:19:33;;;;;;;9.02;1.73;;;11.20;99.90;;;;;;5001753;28;20411;-87
2023/06/02 01:24:59;;;;;;;5.97;1.20;;;11.20;99.90;;;;;;4944697;28;20528;-87
2023/06/02 01:27:26;;;;;;;8.70;1.27;;;11.20;99.90;;;;;;4994614;28;20386;-89
2023/06/02 01:30:08;;;;;;;6.22;2.03;;;11.10;99.90;;;;;;5004326;28;20037;-90
2023/06/02 01:32:59;;;;;;;10.88;1.83;;;11.20;99.90;;;;;;5000369;28;20105;-90
2023/06/02 01:38:40;;;;;;;10.43;1.63;;;11.10;99.90;;;;;;4996702;28;20053;-87
2023/06/02 01:41:06;;;;;;;17.08;2.33;;;11.10;99.90;;;;;;5004022;28;20037;-88
2023/06/02 01:43:32;;;;;;;;;;;11.10;99.90;;;;;;5003146;28;20042;-90
2023/06/02 01:46:01;;;;;;;11.05;1.77;;;11.10;99.90;;;;;;4999282;28;19917;-88
2023/06/02 01:48:30;;;;;;;4.88;1.20;;;11.10;99.90;;;;;;4995259;23;20641;-68
2023/06/02 01:50:56;;;;;;;6.60;1.88;;;11.10;99.90;;;;;;5001281;28;20130;-68
2023/06/02 01:53:26;;;;;;;6.25;1.48;;;11.20;99.90;;;;;;4988909;28;20133;-68
2023/06/02 01:55:51;;;;;;;6.38;1.52;;;11.10;99.90;;;;;;4978518;28;20073;-67
2023/06/02 01:58:17;;;;;;;8.50;1.45;;;11.10;99.90;;;;;;4994263;28;20034;-68
2023/06/02 02:00:43;;;;;;;8.83;1.60;;;11.10;99.90;;;;;;4981414;28;20057;-68
2023/06/02 02:03:08;;;;;;;6.63;1.53;;;11.10;99.90;;;;;;4978928;28;20105;-67
2023/06/02 02:05:34;;;;;;;6.77;1.50;;;11.10;99.90;;;;;;4975195;28;20050;-68
2023/06/02 02:08:02;;;;;;;11.57;1.97;;;11.10;99.90;;;;;;4980415;28;20046;-68
2023/06/02 02:10:30;;;;;;;5.97;1.40;;;11.10;99.90;;;;;;4998306;28;20193;-68
2023/06/02 02:12:59;;;;;;;9.38;1.85;;;11.10;99.90;;;;;;4980217;28;20046;-68
2023/06/02 02:15:27;;;;;;;11.27;1.67;;;11.10;99.90;;;;;;4982642;28;20472;-68
2023/06/02 02:17:56;;;;;;;6.95;2.08;;;11.10;99.90;;;;;;4985674;28;20602;-68
2023/06/02 02:20:23;;;;;;;8.38;1.98;;;11.10;99.90;;;;;;4965218;28;20153;-68
2023/06/02 02:22:49;;;;;;;6.80;1.25;;;11.10;99.90;;;;;;4983428;28;20229;-68
2023/06/02 02:25:15;;;;;;;6.03;1.47;;;11.10;99.90;;;;;;4983015;28;20034;-68
2023/06/02 02:27:40;;;;;;;9.98;1.52;;;11.10;99.90;;;;;;4979470;28;20832;-68
2023/06/02 02:30:07;;;;;;;11.73;1.75;;;11.00;99.90;;;;;;4979317;28;20050;-67
2023/06/02 02:32:36;;;;;;;9.15;1.63;;;11.10;99.90;;;;;;4976937;28;20038;-68
2023/06/02 02:35:03;;;;;;;8.20;2.05;;;11.10;99.90;;;;;;4978128;28;20037;-68
2023/06/02 02:37:29;;;;;;;8.05;1.45;;;11.10;99.90;;;;;;4975374;28;20042;-68
2023/06/02 02:39:54;;;;;;;8.80;1.58;;;11.10;99.90;;;;;;4984634;28;20136;-68
2023/06/02 02:42:23;;;;;;;11.98;2.75;;;11.10;99.90;;;;;;4984944;28;20103;-68
2023/06/02 02:44:48;;;;;;;8.55;1.55;;;11.10;99.90;;;;;;4979685;28;20203;-68
2023/06/02 02:47:17;;;;;;;8.63;1.67;;;11.10;99.90;;;;;;4977137;28;20046;-68
2023/06/02 02:49:42;;;;;;;11.52;2.30;;;11.10;99.90;;;;;;4980263;28;20149;-68
2023/06/02 02:52:08;;;;;;;8.15;1.58;;;11.10;99.90;;;;;;4975934;28;20038;-68
2023/06/02 02:54:34;;;;;;;8.77;1.97;;;11.10;99.90;;;;;;4984548;28;20141;-68
2023/06/02 02:57:00;;;;;;;9.50;1.97;;;11.10;99.90;;;;;;4978031;28;20583;-68
2023/06/02 02:59:26;;;;;;;8.07;1.48;;;11.10;99.90;;;;;;4966401;28;20035;-68
2023/06/02 03:01:52;;;;;;;15.05;1.80;;;11.10;99.90;;;;;;4976893;28;20166;-67
2023/06/02 03:04:24;;;;;;;6.25;1.30;;;11.10;99.90;;;;;;4982400;28;20453;-68
2023/06/02 03:06:52;;;;;;;6.82;1.60;;;11.10;99.90;;;;;;4983409;28;20523;-69
2023/06/02 03:09:19;;;;;;;12.65;2.05;;;11.10;99.90;;;;;;4977880;28;20064;-68
2023/06/02 03:11:45;;;;;;;;;;;11.10;99.90;;;;;;4980603;28;20054;-67
2023/06/02 03:14:11;;;;;;;9.32;2.03;;;11.10;99.90;;;;;;4979426;28;20327;-68
2023/06/02 03:16:43;;;;;;;8.25;1.85;;;11.10;99.90;;;;;;4980630;28;20369;-68
2023/06/02 03:19:10;;;;;;;7.88;2.22;;;11.20;99.90;;;;;;4982056;28;20484;-74
2023/06/02 03:21:41;;;;;;;5.07;1.88;;;11.10;99.90;;;;;;4981814;28;20341;-77
2023/06/02 03:24:13;;;;;;;14.70;1.85;;;11.10;99.90;;;;;;4981506;28;20054;-75
2023/06/02 03:26:40;;;;;;;8.10;1.15;;;11.10;99.90;;;;;;4977781;28;20471;-70
2023/06/02 03:29:07;;;;;;;7.65;2.08;;;11.20;99.90;;;;;;4978396;28;20248;-70
2023/06/02 03:31:36;;;;;;;11.55;1.40;;;11.10;99.90;;;;;;4993175;28;20134;-69
2023/06/02 03:34:03;;;;;;;7.95;1.95;;;11.20;99.90;;;;;;4982082;28;20049;-73
2023/06/02 03:36:29;;;;;;;6.80;1.42;;;11.10;99.90;;;;;;4977851;28;20572;-75
2023/06/02 03:38:55;;;;;;;20.70;2.60;;;11.10;99.90;;;;;;4987761;28;20046;-68
2023/06/02 03:41:21;;;;;;;12.23;1.77;;;11.20;99.90;;;;;;4983445;28;20057;-68
2023/06/02 03:43:50;;;;;;;11.35;1.33;;;11.20;99.90;;;;;;4977534;28;20633;-68
2023/06/02 03:46:16;;;;;;;5.22;1.38;;;11.20;99.90;;;;;;4978564;28;20046;-68
2023/06/02 03:48:41;;;;;;;10.25;1.85;;;11.20;99.90;;;;;;4984498;28;20070;-68
2023/06/02 03:51:07;;;;;;;10.50;1.50;;;11.20;99.90;;;;;;4977190;28;20152;-68
2023/06/02 03:53:32;;;;;;;7.33;1.80;;;11.20;99.90;;;;;;4982806;28;20046;-68
2023/06/02 03:55:58;;;;;;;15.13;1.70;;;11.20;99.90;;;;;;4978068;28;20100;-68
2023/06/02 03:58:24;;;;;;;9.53;1.80;;;11.20;99.90;;;;;;4966621;28;20082;-68
2023/06/02 04:00:49;;;;;;;21.70;2.13;;;11.20;99.90;;;;;;4982276;28;20460;-68
2023/06/02 04:03:15;;;;;;;11.10;1.60;;;11.30;99.90;;;;;;4981233;28;20488;-68
2023/06/02 04:05:41;;;;;;;13.57;2.17;;;11.20;99.90;;;;;;4978616;28;20046;-68
2023/06/02 04:08:07;;;;;;;8.18;1.35;;;11.20;99.90;;;;;;4979877;28;20046;-68
2023/06/02 04:10:33;;;;;;;12.07;2.50;;;11.30;99.90;;;;;;4998477;28;20481;-68
2023/06/02 04:12:59;;;;;;;10.23;1.95;;;11.30;99.90;;;;;;4986094;28;20038;-68
2023/06/02 04:15:25;;;;;;;11.02;1.60;;;11.30;99.90;;;;;;4979413;28;20106;-68
2023/06/02 04:17:51;;;;;;;10.00;2.10;;;11.30;99.90;;;;;;4988575;28;20049;-67
2023/06/02 04:20:16;;;;;;;9.05;2.45;;;11.30;99.90;;;;;;4983365;28;20089;-68
2023/06/02 04:22:42;;;;;;;13.47;2.00;;;11.30;99.90;;;;;;4987256;28;20073;-67
2023/06/02 04:25:10;;;;;;;13.50;2.25;;;11.40;99.90;;;;;;4979064;28;20097;-69
2023/06/02 04:27:39;;;;;;;6.90;2.57;;;11.40;99.90;;;;;;4980686;28;20073;-67
2023/06/02 04:30:05;;;;;;;14.07;2.22;;;11.40;99.90;;;;;;4977529;28;20137;-66
2023/06/02 04:32:32;;;;;;;;;;;11.40;99.90;;;;;;4978169;28;20408;-67
2023/06/02 04:34:58;;;;;;;8.30;1.88;;;11.30;99.90;;;;;;4978401;28;19921;-67
2023/06/02 04:37:23;;;;;;;11.77;2.45;;;11.40;99.90;;;;;;4999843;28;20134;-67
2023/06/02 04:39:50;;;;;;;15.40;2.80;;;11.40;99.90;;;;;;4994391;28;20050;-67
2023/06/02 04:42:16;;;;;;;11.77;1.35;;;11.40;99.90;;;;;;4982816;28;20423;-67
2023/06/02 04:44:44;;;;;;;11.93;1.83;;;11.40;99.90;;;;;;4975882;28;20099;-67
2023/06/02 04:47:10;;;;;;;10.55;2.17;;;11.50;99.90;;;;;;4980202;28;20449;-67
2023/06/02 04:49:40;;;;;;;10.93;1.90;;;11.50;99.90;;;;;;4932494;28;1072807;-67
2023/06/02 04:52:07;;;;;;;5.97;1.25;;;11.50;99.90;;;;;;4987037;28;20056;-67
2023/06/02 04:54:33;;;;;;;10.95;2.45;;;11.50;99.90;;;;;;4980291;28;20042;-67
2023/06/02 04:56:59;;;;;;;9.77;2.03;;;11.50;99.90;;;;;;4983041;28;20050;-66
2023/06/02 04:59:24;;;;;;;8.50;1.70;;;11.50;99.90;;;;;;4975720;28;20050;-67
2023/06/02 05:01:50;;;;;;;16.97;3.07;;;11.50;99.90;;;;;;4983862;28;20312;-67
2023/06/02 05:04:16;;;;;;;11.90;1.73;;;11.60;99.90;;;;;;4989992;28;20396;-67
2023/06/02 05:06:41;;;;;;;10.73;2.40;;;11.60;99.90;;;;;;4985150;28;20247;-67
2023/06/02 05:09:07;;;;;;;7.40;2.47;;;11.60;99.90;;;;;;4982111;28;20718;-66
2023/06/02 05:11:32;;;;;;;12.07;2.23;;;11.70;99.90;;;;;;4982748;28;20050;-66
2023/06/02 05:13:58;;;;;;;6.97;1.90;;;11.70;99.90;;;;;;4979268;28;20476;-67
2023/06/02 05:16:24;;;;;;;5.97;1.53;;;11.70;99.90;;;;;;4979386;28;20081;-66
2023/06/02 05:18:50;;;;;;;7.53;2.10;;;11.70;99.90;;;;;;4983930;28;20750;-67
2023/06/02 05:21:15;;;;;;;10.02;2.38;;;11.70;99.90;;;;;;4975155;28;20103;-67
2023/06/02 05:23:43;;;;;;;11.07;1.97;;;11.80;99.90;;;;;;4983995;28;20598;-69
2023/06/02 05:26:09;;;;;;;12.80;1.63;;;11.80;99.90;;;;;;4983627;28;20172;-67
2023/06/02 05:28:34;;;;;;;15.73;1.83;;;11.80;99.90;;;;;;4978222;28;20489;-67
2023/06/02 05:31:00;;;;;;;7.17;2.40;;;11.80;99.90;;;;;;4978159;28;20100;-68
2023/06/02 05:33:26;;;;;;;10.57;2.47;;;11.80;99.90;;;;;;4983892;28;20045;-67
2023/06/02 05:35:51;;;;;;;7.97;2.00;;;11.80;99.90;;;;;;4979989;28;20038;-68
2023/06/02 05:38:17;;;;;;;12.03;2.53;;;11.90;99.90;;;;;;4975430;28;20038;-67
2023/06/02 05:40:46;;;;;;;7.07;1.80;;;11.90;99.90;;;;;;4975482;28;20065;-68
2023/06/02 05:43:13;;;;;;;8.57;2.13;;;11.90;99.90;;;;;;4994604;28;20046;-67
2023/06/02 05:45:38;;;;;;;10.98;2.35;;;12.00;99.90;;;;;;4992780;28;20069;-70
2023/06/02 05:48:04;;;;;;;9.83;2.60;;;12.00;99.90;;;;;;4979057;28;20046;-68
2023/06/02 05:50:30;;;;;;;11.07;2.50;;;12.00;99.90;;;;;;4980031;28;20031;-70
2023/06/02 05:52:55;;;;;;;9.50;2.17;;;12.00;99.90;;;;;;4985163;28;20219;-71
2023/06/02 05:55:22;;;;;;;7.10;1.70;;;12.00;99.90;;;;;;4964662;28;20084;-79
2023/06/02 05:57:47;;;;;;;9.18;2.05;;;12.10;99.90;;;;;;4980207;28;20477;-74
2023/06/02 06:00:14;;;;;;;12.27;2.30;;;12.10;99.90;;;;;;4970930;28;20061;-75
2023/06/02 06:02:42;;;;;;;12.23;2.53;;;12.10;99.90;;;;;;4978822;28;20371;-73
2023/06/02 06:05:08;;;;;;;8.70;2.37;;;12.10;99.90;;;;;;4974017;28;20453;-70
2023/06/02 06:07:33;;;;;;;13.32;2.60;;;12.20;99.90;;;;;;4981205;28;20293;-69
2023/06/02 06:09:59;;;;;;;11.13;2.13;;;12.20;99.90;;;;;;4982553;28;20046;-70
2023/06/02 06:12:25;;;;;;;15.97;2.90;;;12.20;99.90;;;;;;4982941;28;20034;-67
2023/06/02 06:14:53;;;;;;;7.97;2.25;;;12.20;99.90;;;;;;5002115;28;20042;-68
2023/06/02 06:17:19;;;;;;;9.50;2.37;;;12.20;99.90;;;;;;4976300;28;20040;-68
2023/06/02 06:19:44;;;;;;;8.60;2.20;;;12.30;99.90;;;;;;4978784;28;20042;-67
2023/06/02 06:22:10;;;;;;;8.97;2.27;;;12.40;99.90;;;;;;4994878;28;20100;-67
2023/06/02 06:24:36;;;;;;;13.80;3.80;;;12.30;99.90;;;;;;4977755;28;20074;-67
2023/06/02 06:27:01;;;;;;;12.43;2.13;;;12.40;99.90;;;;;;4981509;28;20578;-68
2023/06/02 06:29:27;;;;;;;11.13;2.40;;;12.50;99.90;;;;;;4984050;28;20515;-67
2023/06/02 06:31:53;;;;;;;13.13;2.22;;;12.50;99.90;;;;;;4972571;28;20481;-67
2023/06/02 06:34:19;;;;;;;17.33;2.65;;;12.50;99.90;;;;;;4981976;28;20078;-68
2023/06/02 06:36:47;;;;;;;15.97;2.63;;;12.60;99.90;;;;;;4985104;28;20069;-69
2023/06/02 06:39:13;;;;;;;9.68;2.60;;;12.60;99.90;;;;;;4976884;28;20299;-67
2023/06/02 06:41:40;;;;;;;15.95;3.03;;;12.60;99.90;;;;;;4976104;28;20059;-71
2023/06/02 06:44:06;;;;;;;10.00;2.65;;;12.70;99.90;;;;;;4977884;28;20058;-67
2023/06/02 06:46:31;;;;;;;16.55;2.78;;;12.80;99.90;;;;;;4981398;28;20046;-67
2023/06/02 06:48:58;;;;;;;7.40;2.93;;;12.80;99.90;;;;;;4996794;28;20477;-67
2023/06/02 06:51:24;;;;;;;11.27;2.50;;;12.80;99.90;;;;;;4976473;28;20035;-69
2023/06/02 06:53:49;;;;;;;10.73;2.83;;;12.90;99.90;;;;;;4982414;28;20050;-67
2023/06/02 06:56:18;;;;;;;14.63;2.77;;;12.90;99.90;;;;;;4983680;28;20137;-67
2023/06/02 06:58:46;;;;;;;17.05;2.38;;;13.00;99.90;;;;;;4993066;22;20138;-71
2023/06/02 07:01:13;;;;;;;12.25;2.78;;;13.00;99.90;;;;;;4969814;28;20038;-71
2023/06/02 07:03:39;;;;;;;18.60;3.33;;;13.00;99.90;;;;;;4964297;28;20078;-71
2023/06/02 07:06:05;;;;;;;20.58;3.47;;;13.10;99.90;;;;;;4965079;28;20129;-71
2023/06/02 07:08:31;;;;;;;13.63;3.03;;;13.10;99.90;;;;;;4964437;28;20057;-71
2023/06/02 07:10:56;;;;;;;14.40;2.88;;;13.10;99.90;;;;;;4957736;28;20136;-72
2023/06/02 07:13:27;;;;;;;9.85;2.45;;;13.20;99.90;;;;;;4964146;28;20485;-71
2023/06/02 07:15:53;;;;;;;12.63;2.60;;;13.30;99.90;;;;;;4950868;28;20043;-72
2023/06/02 07:18:18;;;;;;;16.83;2.95;;;13.30;99.90;;;;;;4965020;28;20034;-71
2023/06/02 07:20:44;;;;;;;6.67;2.57;;;13.40;99.90;;;;;;4963140;28;20496;-71
2023/06/02 07:23:10;;;;;;;11.98;2.75;;;13.40;99.90;;;;;;4969518;28;20085;-71
2023/06/02 07:25:36;;;;;;;7.93;3.03;;;13.50;99.90;;;;;;4966544;28;20054;-71
2023/06/02 07:28:03;;;;;;;13.60;2.58;;;13.60;99.90;;;;;;4966480;28;20051;-70
2023/06/02 07:30:31;;;;;;;15.60;3.00;;;13.70;99.90;;;;;;4954436;28;20034;-70
2023/06/02 07:32:57;;;;;;;8.77;2.50;;;13.80;99.90;;;;;;4970195;28;20043;-70
2023/06/02 07:35:23;;;;;;;14.45;3.15;;;13.90;99.90;;;;;;4965054;28;20134;-71
2023/06/02 07:37:53;;;;;;;8.65;2.78;;;14.00;99.90;;;;;;4964561;28;20043;-70
2023/06/02 07:40:19;;;;;;;11.40;2.72;;;14.10;99.90;;;;;;4945382;28;20453;-70
2023/06/02 07:42:46;;;;;;;15.23;2.72;;;14.20;99.90;;;;;;4966417;28;20043;-70
2023/06/02 07:45:11;;;;;;;9.32;2.33;;;14.40;99.90;;;;;;4961956;28;20430;-70
2023/06/02 07:47:37;;;;;;;9.30;2.35;;;14.50;99.90;;;;;;4965973;28;20102;-70
2023/06/02 07:50:03;;;;;;;19.20;3.60;;;14.60;99.90;;;;;;4968619;28;20097;-70
2023/06/02 07:52:29;;;;;;;14.20;2.85;;;14.70;99.90;;;;;;4969475;28;20085;-70
2023/06/02 07:54:54;;;;;;;14.23;3.58;;;14.70;99.90;;;;;;4967148;28;20050;-70
2023/06/02 07:57:20;;;;;;;13.73;2.45;;;14.80;99.90;;;;;;4954536;28;20026;-70
2023/06/02 07:59:45;;;;;;;14.50;3.08;;;14.90;99.90;;;;;;4978930;28;20091;-70
2023/06/02 08:02:11;;;;;;;10.75;2.65;;;15.00;99.90;;;;;;4968695;28;20035;-70
2023/06/02 08:04:37;;;;;;;16.03;2.50;;;15.20;99.90;;;;;;4970493;28;20043;-70
2023/06/02 08:07:04;;;;;;;10.30;2.17;;;15.20;99.90;;;;;;4967078;28;20347;-70
2023/06/02 08:09:29;;;;;;;9.27;1.85;;;15.20;99.90;;;;;;4967680;28;20273;-70
2023/06/02 08:11:55;;;;;;;13.90;2.33;;;15.20;99.90;;;;;;4949705;28;20054;-70
2023/06/02 08:14:21;;;;;;;11.77;2.67;;;15.10;99.90;;;;;;4963897;28;20043;-70
2023/06/02 08:16:46;;;;;;;11.68;2.03;;;15.10;99.90;;;;;;4963402;28;20537;-70
2023/06/02 08:19:12;;;;;;;9.85;2.45;;;15.10;99.90;;;;;;4967507;28;20089;-70
2023/06/02 08:21:40;;;;;;;9.48;1.90;;;15.10;99.90;;;;;;4972675;28;20050;-70
2023/06/02 08:24:05;;;;;;;7.53;1.55;;;15.10;99.90;;;;;;4968878;28;20081;-70
2023/06/02 08:26:32;;;;;;;13.27;2.30;;;15.20;99.90;;;;;;4954038;28;20074;-70
2023/06/02 08:28:58;;;;;;;;;;;15.20;99.90;;;;;;4957136;28;20271;-70
2023/06/02 08:31:23;;;;;;;11.85;2.08;;;15.30;99.90;;;;;;4982773;28;19929;-71
2023/06/02 08:33:52;;;;;;;10.60;2.00;;;15.40;99.90;;;;;;4969430;28;20358;-70
2023/06/02 08:36:19;;;;;;;9.18;1.95;;;15.50;99.90;;;;;;4954258;28;20043;-71
2023/06/02 08:38:51;;;;;;;7.43;1.67;;;15.70;99.90;;;;;;4971146;28;20042;-70
2023/06/02 08:41:17;;;;;;;9.30;1.70;;;15.80;99.90;;;;;;4969653;28;20053;-71
2023/06/02 08:43:44;;;;;;;11.50;1.70;;;16.00;99.90;;;;;;4968294;28;20042;-70
2023/06/02 08:46:14;;;;;;;12.55;2.03;;;16.10;99.90;;;;;;4971847;28;20054;-70
2023/06/02 08:48:45;;;;;;;10.68;2.00;;;16.20;99.90;;;;;;4970306;28;20046;-70
2023/06/02 08:51:13;;;;;;;8.10;2.03;;;16.30;99.90;;;;;;4966375;28;20089;-70
2023/06/02 08:53:39;;;;;;;10.30;1.90;;;16.50;99.90;;;;;;4971783;28;20526;-71
2023/06/02 08:56:05;;;;;;;9.10;1.67;;;16.60;99.90;;;;;;4975336;28;20122;-70
2023/06/02 08:58:32;;;;;;;8.70;1.73;;;16.70;99.90;;;;;;4968274;28;20038;-70
2023/06/02 09:00:58;;;;;;;9.95;2.15;;;16.90;99.90;;;;;;4966299;28;20043;-70
2023/06/02 09:03:27;;;;;;;8.60;1.38;;;17.00;99.90;;;;;;4972375;28;20038;-70
2023/06/02 09:05:53;;;;;;;6.32;1.23;;;17.20;99.90;;;;;;4966294;28;20050;-70
2023/06/02 09:08:18;;;;;;;7.13;1.40;;;17.30;99.90;;;;;;4963143;28;20050;-70
2023/06/02 09:10:46;;;;;;;11.13;1.60;;;17.50;99.90;;;;;;4963517;28;20055;-70
2023/06/02 09:13:32;;;;;;;7.85;1.30;;;17.60;99.90;;;;;;4968026;28;20408;-70
2023/06/02 09:16:02;;;;;;;9.50;1.95;;;17.60;99.90;;;;;;4965172;28;20038;-71
2023/06/02 09:18:28;;;;;;;7.07;1.42;;;17.60;99.90;;;;;;4945442;28;20065;-70
2023/06/02 09:20:58;;;;;;;5.20;1.60;;;17.50;99.90;;;;;;4972434;28;20047;-71
2023/06/02 09:23:43;;;;;;;3.38;1.05;;;17.50;99.90;;;;;;4949295;28;20105;-70
2023/06/02 09:26:26;;;;;;;2.50;0.77;;;17.60;99.90;;;;;;4957613;28;20078;-72
2023/06/02 09:29:12;;;;;;;5.75;0.95;;;17.60;99.90;;;;;;4962750;28;20289;-70
2023/06/02 09:31:45;;;;;;;7.55;1.40;;;17.70;99.90;;;;;;4960869;28;20501;-70
2023/06/02 09:34:14;;;;;;;7.50;1.30;;;17.60;99.90;;;;;;4966731;28;20043;-70
2023/06/02 09:36:41;;;;;;;6.22;1.40;;;17.80;99.90;;;;;;4963391;28;20398;-70
2023/06/02 09:39:10;;;;;;;5.57;1.10;;;17.90;99.90;;;;;;4961080;28;20389;-70
2023/06/02 09:41:40;;;;;;;5.22;1.00;;;18.00;99.90;;;;;;4966619;28;20096;-70
2023/06/02 09:44:13;;;;;;;9.50;1.77;;;18.10;99.90;;;;;;4965428;28;20493;-70
2023/06/02 09:46:40;;;;;;;5.25;0.95;;;18.10;99.90;;;;;;4962075;28;20100;-70
2023/06/02 09:49:06;;;;;;;4.53;0.93;;;18.20;99.90;;;;;;4964258;28;20050;-71
2023/06/02 09:51:33;;;;;;;5.57;0.95;;;18.40;99.90;;;;;;4965180;28;20042;-71
2023/06/02 09:53:59;;;;;;;;;;;18.50;99.90;;;;;;4964036;28;20121;-70
2023/06/02 09:56:28;;;;;;;3.53;1.02;;;18.60;99.90;;;;;;4959550;28;20304;-70
2023/06/02 09:58:57;;;;;;;3.45;1.00;;;18.70;99.90;;;;;;4964616;28;20042;-70
2023/06/02 10:01:22;;;;;;;3.03;0.55;;;18.80;99.90;;;;;;4966630;28;20133;-70
2023/06/02 10:03:48;;;;;;;4.13;0.70;;;19.00;99.90;;;;;;4969194;28;20125;-70
2023/06/02 10:06:49;;;;;;;3.05;1.08;;;19.10;99.90;;;;;;4950744;28;20046;-70
2023/06/02 10:09:30;;;;;;;3.40;0.60;;;19.20;99.90;;;;;;4948393;28;20489;-70
2023/06/02 10:12:22;;;;;;;4.15;1.70;;;19.30;99.90;;;;;;4957418;28;20050;-71
2023/06/02 10:15:14;;;;;;;1.63;0.60;;;19.30;99.90;;;;;;4941099;28;20409;-70
2023/06/02 10:18:14;;;;;;;3.10;0.90;;;19.30;99.90;;;;;;4958821;28;20134;-70
2023/06/02 10:20:43;;;;;;;3.75;1.00;;;19.30;99.90;;;;;;4979324;28;20073;-71
2023/06/02 10:23:28;;;;;;;2.53;0.80;;;19.40;99.90;;;;;;4962825;28;20042;-71
2023/06/02 10:26:22;;;;;;;3.30;0.85;;;19.50;99.90;;;;;;4963593;28;20130;-70
2023/06/02 10:28:49;;;;;;;4.78;0.98;;;19.50;99.90;;;;;;4962957;28;20150;-70
2023/06/02 10:31:15;;;;;;;3.20;0.80;;;19.50;99.90;;;;;;4957269;28;20160;-70
2023/06/02 10:33:49;;;;;;;3.00;0.70;;;19.40;99.90;;;;;;4967483;28;20046;-71
2023/06/02 10:36:18;;;;;;;4.72;1.00;;;19.50;99.90;;;;;;4962490;28;20058;-70
2023/06/02 10:38:45;;;;;;;3.90;1.10;;;19.50;99.90;;;;;;4982915;28;20050;-70
2023/06/02 10:41:12;;;;;;;2.38;0.70;;;19.50;99.90;;;;;;4962181;28;20089;-71
2023/06/02 10:43:38;;;;;;;4.40;0.80;;;19.70;99.90;;;;;;4962950;28;20429;-71
2023/06/02 10:46:21;;;;;;;3.53;1.42;;;19.70;99.90;;;;;;4969755;28;20053;-70
2023/06/02 10:48:47;;;;;;;2.58;0.75;;;19.90;99.90;;;;;;4955711;28;20078;-70
2023/06/02 10:51:13;;;;;;;4.00;0.90;;;19.90;99.90;;;;;;4967700;28;20121;-71
2023/06/02 10:54:07;;;;;;;4.97;0.85;;;19.90;99.90;;;;;;4964717;28;20047;-70
2023/06/02 10:56:35;;;;;;;3.95;1.10;;;20.00;99.90;;;;;;4958722;28;20038;-71
2023/06/02 10:59:02;;;;;;;1.20;0.50;;;20.00;99.90;;;;;;4962220;28;20501;-71
2023/06/02 11:01:51;;;;;;;3.72;0.75;;;20.10;99.90;;;;;;4965923;28;20125;-71
2023/06/02 11:04:28;;;;;;;7.00;1.48;;;20.10;99.90;;;;;;4970877;28;20046;-70
2023/06/02 11:07:23;;;;;;;0.85;0.40;;;20.10;99.50;;;;;;4939755;28;20042;-70
2023/06/02 11:09:52;;;;;;;1.83;0.50;;;20.20;98.70;;;;;;4962976;28;20042;-71
2023/06/02 11:12:17;;;;;;;2.55;1.13;;;20.30;98.10;;;;;;4966084;28;20091;-71
2023/06/02 11:15:02;;;;;;;1.95;0.70;;;20.30;96.40;;;;;;4960873;28;20051;-70
2023/06/02 11:17:32;;;;;;;3.72;0.40;;;20.30;96.10;;;;;;4963676;28;20293;-71
2023/06/02 11:19:58;;;;;;;2.30;0.68;;;20.40;95.80;;;;;;4963366;28;20351;-71
2023/06/02 11:22:27;;;;;;;4.18;0.82;;;20.50;95.30;;;;;;4961965;28;20075;-70
2023/06/02 11:24:54;;;;;;;3.13;0.80;;;20.60;94.40;;;;;;4967472;28;20050;-71
2023/06/02 11:27:33;;;;;;;3.33;0.70;;;20.70;94.00;;;;;;4966214;28;20038;-70
2023/06/02 11:30:14;;;;;;;3.08;1.00;;;20.70;93.80;;;;;;4964143;28;20440;-71
2023/06/02 11:32:41;;;;;;;3.33;0.70;;;20.70;92.50;;;;;;4961943;28;20062;-71
2023/06/02 11:35:09;;;;;;;1.70;0.60;;;20.80;90.50;;;;;;4966867;28;20386;-71
2023/06/02 11:37:41;;;;;;;2.40;0.65;;;20.70;88.00;;;;;;4973622;28;20377;-71
2023/06/02 11:40:10;;;;;;;6.03;0.68;;;20.60;87.80;;;;;;4966501;28;20459;-71
2023/06/02 11:42:43;;;;;;;1.05;0.47;;;20.60;85.60;;;;;;4971487;28;20070;-71
2023/06/02 11:45:19;;;;;;;2.65;0.60;;;20.60;82.90;;;;;;4965984;28;20049;-71
2023/06/02 11:47:49;;;;;;;2.30;1.00;;;20.70;81.80;;;;;;4950199;28;20042;-71
2023/06/02 11:50:16;;;;;;;4.05;0.63;;;20.70;83.90;;;;;;4962292;28;20157;-71
2023/06/02 11:52:42;;;;;;;2.92;0.93;;;20.80;83.30;;;;;;4967371;28;20050;-71
2023/06/02 11:55:10;;;;;;;1.60;0.50;;;20.90;82.30;;;;;;4968910;28;20034;-71
2023/06/02 11:57:36;;;;;;;3.70;0.75;;;20.90;81.70;;;;;;4965949;28;20114;-71
2023/06/02 12:00:09;;;;;;;;;;;20.90;81.80;;;;;;4965847;28;20061;-71
2023/06/02 12:02:36;;;;;;;1.08;0.50;;;21.00;86.10;;;;;;4970922;28;19991;-72
2023/06/02 12:05:02;;;;;;;2.63;0.82;;;21.10;85.20;;;;;;4971066;28;20081;-71
2023/06/02 12:07:28;;;;;;;;;;;21.30;85.00;;;;;;4966273;28;20039;-71
2023/06/02 12:09:54;;;;;;;2.35;0.88;;;21.40;84.60;;;;;;4976681;28;19922;-71
2023/06/02 12:12:20;;;;;;;1.98;0.93;;;21.50;84.40;;;;;;4969260;28;20038;-71
2023/06/02 12:14:45;;;;;;;9.35;1.13;;;21.40;84.40;;;;;;4967118;28;20047;-71
2023/06/02 12:17:11;;;;;;;3.00;1.00;;;21.50;86.50;;;;;;4965208;28;20129;-71
2023/06/02 12:19:37;;;;;;;;;;;21.50;85.80;;;;;;4964488;28;20061;-71
2023/06/02 12:22:16;;;;;;;6.22;1.10;;;21.60;86.00;;;;;;4968377;28;19918;-71
2023/06/02 12:24:42;;;;;;;4.53;0.65;;;21.60;86.30;;;;;;4964933;28;20104;-71
2023/06/02 12:27:08;;;;;;;;;;;21.70;87.60;;;;;;4966069;28;20046;-71
2023/06/02 12:29:34;;;;;;;2.97;0.93;;;21.80;88.40;;;;;;4962842;28;20201;-71
2023/06/02 12:32:05;;;;;;;3.50;0.80;;;21.70;86.50;;;;;;4965070;28;20050;-71
2023/06/02 12:34:30;;;;;;;3.67;0.80;;;21.60;86.70;;;;;;4959640;28;20532;-69
2023/06/02 12:36:56;;;;;;;;;;;21.50;88.60;;;;;;4960198;28;20129;-71
2023/06/02 12:39:24;;;;;;;1.80;0.80;;;21.40;89.90;;;;;;4963845;28;19949;-71
2023/06/02 12:41:49;;;;;;;3.25;1.15;;;21.40;91.00;;;;;;4964289;28;20118;-71
2023/06/02 12:44:15;;;;;;;;;;;21.50;91.00;;;;;;4970615;28;20118;-71
2023/06/02 12:46:41;;;;;;;4.15;1.00;;;21.60;91.30;;;;;;4973324;28;19922;-71
2023/06/02 12:49:08;;;;;;;7.68;1.40;;;21.70;92.00;;;;;;4965195;28;20529;-71
2023/06/02 12:51:35;;;;;;;2.38;1.02;;;21.60;92.00;;;;;;4964105;28;20059;-72
2023/06/02 12:54:00;;;;;;;;;;;21.50;92.60;;;;;;4969078;28;20050;-71
2023/06/02 12:56:27;;;;;;;3.33;1.00;;;21.50;92.70;;;;;;4988754;28;19924;-71
2023/06/02 12:58:58;;;;;;;5.10;1.23;;;21.40;93.10;;;;;;4997767;22;20038;-85